Time;durP1;ratioP1;P1;durP2;ratioP2;P2;SDS_P1;SDS_P2;PMS_P1;PMS_P2;Temp;Humidity;BMP_temperature;BMP_pressure;BME280_temperature;BME280_humidity;BME280_pressure;Samples;Min_cycle;Max_cycle;Signal;HPM_P1;HPM_P2
2024/03/01 00:00:32;;;;;;;;;;;;;;;27.80;23.21;97842.44;5093934;28;19920;-82
2024/03/01 00:02:58;;;;;;;;;;;;;;;28.14;22.68;97844.31;5092298;28;19926;-81
2024/03/01 00:05:24;;;;;;;;;;;;;;;28.38;22.59;97839.63;5087209;28;20011;-82
2024/03/01 00:07:51;;;;;;;;;;;;;;;28.50;22.42;97844.34;5089733;28;20244;-81
2024/03/01 00:10:17;;;;;;;;;;;;;;;28.62;22.35;97834.16;5093783;28;20333;-81
2024/03/01 00:12:43;;;;;;;;;;;;;;;27.39;23.68;97825.97;5091525;28;19928;-81
2024/03/01 00:15:09;;;;;;;;;;;;;;;27.18;23.93;97826.78;5092494;28;19974;-81
2024/03/01 00:17:35;;;;;;;;;;;;;;;27.21;23.56;97814.59;5093044;28;19928;-81
2024/03/01 00:20:02;;;;;;;;;;;;;;;26.80;24.13;97812.13;5093034;28;19924;-81
2024/03/01 00:22:28;;;;;;;;;;;;;;;26.82;24.34;97806.81;5092970;28;20407;-81
2024/03/01 00:24:54;;;;;;;;;;;;;;;27.43;23.65;97812.53;5095689;28;19926;-81
2024/03/01 00:27:20;;;;;;;;;;;;;;;27.87;22.94;97801.84;5071857;28;19924;-81
2024/03/01 00:29:46;;;;;;;;;;;;;;;27.86;22.94;97800.31;5086818;28;19928;-81
2024/03/01 00:32:12;;;;;;;;;;;;;;;27.29;23.27;97807.41;5090098;28;20350;-81
2024/03/01 00:34:38;;;;;;;;;;;;;;;27.20;23.75;97801.72;5092377;28;19920;-81
2024/03/01 00:37:04;;;;;;;;;;;;;;;27.75;22.97;97803.56;5087033;28;20296;-81
2024/03/01 00:39:31;;;;;;;;;;;;;;;28.11;22.83;97802.88;5086963;28;19920;-81
2024/03/01 00:41:57;;;;;;;;;;;;;;;28.12;22.90;97800.84;5089451;28;19920;-81
2024/03/01 00:44:23;;;;;;;;;;;;;;;28.38;22.59;97796.50;5091237;28;19965;-81
2024/03/01 00:46:49;;;;;;;;;;;;;;;28.27;22.45;97798.97;5092547;28;19930;-81
2024/03/01 00:49:15;;;;;;;;;;;;;;;28.34;22.31;97793.03;5090370;28;19920;-81
2024/03/01 00:51:41;;;;;;;;;;;;;;;28.48;22.19;97801.66;5090910;28;20411;-81
2024/03/01 00:54:07;;;;;;;;;;;;;;;28.62;22.21;97803.09;5091570;28;19956;-81
2024/03/01 00:56:33;;;;;;;;;;;;;;;28.72;22.15;97796.97;5092310;28;20344;-81
2024/03/01 00:58:59;;;;;;;;;;;;;;;28.76;21.83;97793.97;5094395;28;20397;-82
2024/03/01 01:01:25;;;;;;;;;;;;;;;28.80;22.03;97783.28;5094143;28;20015;-82
2024/03/01 01:03:51;;;;;;;;;;;;;;;28.20;23.17;97783.13;5072302;28;20015;-81
2024/03/01 01:06:17;;;;;;;;;;;;;;;27.65;23.32;97785.03;5085638;28;19960;-81
2024/03/01 01:08:44;;;;;;;;;;;;;;;27.58;23.32;97781.72;5093190;28;19990;-82
2024/03/01 01:11:10;;;;;;;;;;;;;;;27.75;22.94;97777.41;5087450;28;19920;-82
2024/03/01 01:13:36;;;;;;;;;;;;;;;27.91;22.57;97769.41;5085723;28;19943;-82
2024/03/01 01:16:02;;;;;;;;;;;;;;;28.17;22.28;97766.38;5078287;28;19993;-82
2024/03/01 01:18:28;;;;;;;;;;;;;;;28.33;22.05;97766.84;5086402;28;19926;-82
2024/03/01 01:20:54;;;;;;;;;;;;;;;28.35;22.04;97760.72;5092603;28;19920;-82
2024/03/01 01:23:20;;;;;;;;;;;;;;;28.48;21.93;97758.50;5091253;28;19973;-81
2024/03/01 01:25:46;;;;;;;;;;;;;;;28.57;21.80;97750.81;5089272;28;20030;-81
2024/03/01 01:28:12;;;;;;;;;;;;;;;28.59;21.79;97741.91;5087332;28;19920;-82
2024/03/01 01:30:38;;;;;;;;;;;;;;;28.31;21.73;97752.38;5085496;28;19921;-82
2024/03/01 01:33:04;;;;;;;;;;;;;;;27.64;22.36;97740.38;5086887;28;20383;-81
2024/03/01 01:35:31;;;;;;;;;;;;;;;27.60;22.53;97736.91;5087358;28;19935;-82
2024/03/01 01:37:57;;;;;;;;;;;;;;;27.98;22.09;97728.84;5085557;28;19927;-81
2024/03/01 01:40:26;;;;;;;;;;;;;;;28.25;22.01;97731.69;5085159;28;20308;-82
2024/03/01 01:42:54;;;;;;;;;;;;;;;28.39;21.83;97733.88;5085233;28;19928;-81
2024/03/01 01:45:20;;;;;;;;;;;;;;;28.47;21.67;97728.69;5086011;28;19971;-81
2024/03/01 01:47:48;;;;;;;;;;;;;;;28.48;21.69;97733.09;5071996;28;19931;-81
2024/03/01 01:50:15;;;;;;;;;;;;;;;28.49;21.75;97720.53;5092151;28;19916;-82
2024/03/01 01:52:42;;;;;;;;;;;;;;;28.53;21.82;97724.78;5086664;28;19928;-82
2024/03/01 01:55:08;;;;;;;;;;;;;;;28.64;21.31;97719.44;5084872;28;19935;-82
2024/03/01 01:57:34;;;;;;;;;;;;;;;28.68;21.42;97711.56;5088031;28;20376;-82
2024/03/01 02:00:04;;;;;;;;;;;;;;;28.69;21.58;97721.63;5084859;28;19920;-82
2024/03/01 02:02:31;;;;;;;;;;;;;;;28.53;21.78;97721.16;5085667;28;19920;-82
2024/03/01 02:04:57;;;;;;;;;;;;;;;28.51;21.61;97712.38;5088200;28;19920;-82
2024/03/01 02:07:24;;;;;;;;;;;;;;;28.59;21.55;97713.66;5085123;28;20676;-82
2024/03/01 02:09:51;;;;;;;;;;;;;;;28.60;21.75;97718.81;5088443;28;20052;-82
2024/03/01 02:12:17;;;;;;;;;;;;;;;28.63;21.73;97722.75;5091730;28;19943;-81
2024/03/01 02:14:44;;;;;;;;;;;;;;;28.49;21.90;97717.72;5091051;28;20002;-81
2024/03/01 02:17:10;;;;;;;;;;;;;;;28.08;22.10;97705.81;5084654;28;20034;-81
2024/03/01 02:19:36;;;;;;;;;;;;;;;27.22;23.08;97706.22;5085345;28;19947;-81
2024/03/01 02:22:06;;;;;;;;;;;;;;;27.39;23.01;97704.75;5090107;28;19916;-81
2024/03/01 02:24:32;;;;;;;;;;;;;;;27.36;22.84;97683.06;5085119;28;19927;-81
2024/03/01 02:26:58;;;;;;;;;;;;;;;26.95;23.10;97684.38;5085223;28;19943;-81
2024/03/01 02:29:24;;;;;;;;;;;;;;;26.22;24.15;97685.13;5088179;28;20007;-81
2024/03/01 02:31:50;;;;;;;;;;;;;;;25.94;24.44;97681.31;5087363;28;19924;-81
2024/03/01 02:34:16;;;;;;;;;;;;;;;26.20;24.06;97694.06;5072775;28;19967;-81
2024/03/01 02:36:42;;;;;;;;;;;;;;;26.87;23.08;97685.09;5087903;28;19985;-81
2024/03/01 02:39:16;;;;;;;;;;;;;;;27.41;22.35;97682.50;5089599;28;20015;-81
2024/03/01 02:41:46;;;;;;;;;;;;;;;27.81;21.71;97680.38;5089908;28;19955;-81
2024/03/01 02:44:12;;;;;;;;;;;;;;;27.99;21.52;97669.13;5088650;28;19920;-81
2024/03/01 02:46:39;;;;;;;;;;;;;;;28.12;21.31;97676.66;5087079;28;20291;-81
2024/03/01 02:49:05;;;;;;;;;;;;;;;28.11;21.38;97660.97;5090116;28;19924;-81
2024/03/01 02:51:31;;;;;;;;;;;;;;;28.11;21.23;97675.84;5092427;28;19920;-81
2024/03/01 02:53:57;;;;;;;;;;;;;;;28.14;21.36;97679.78;5092405;28;19920;-81
2024/03/01 02:56:23;;;;;;;;;;;;;;;28.10;21.63;97679.16;5091866;28;19928;-81
2024/03/01 02:58:49;;;;;;;;;;;;;;;28.14;21.65;97679.78;5089116;28;19931;-81
2024/03/01 03:01:16;;;;;;;;;;;;;;;28.33;21.33;97672.88;5086983;28;20021;-81
2024/03/01 03:03:42;;;;;;;;;;;;;;;27.27;22.37;97658.47;5091143;28;19966;-81
2024/03/01 03:06:08;;;;;;;;;;;;;;;26.54;22.92;97660.16;5089815;28;19920;-81
2024/03/01 03:08:34;;;;;;;;;;;;;;;26.34;23.21;97654.13;5089312;28;19928;-81
2024/03/01 03:11:00;;;;;;;;;;;;;;;26.28;23.09;97652.38;5084738;28;20054;-81
2024/03/01 03:13:26;;;;;;;;;;;;;;;26.20;23.19;97654.66;5084202;28;19970;-81
2024/03/01 03:15:52;;;;;;;;;;;;;;;26.88;22.73;97644.41;5083983;28;19920;-81
2024/03/01 03:18:18;;;;;;;;;;;;;;;27.45;22.08;97645.69;5086325;28;19927;-81
2024/03/01 03:20:44;;;;;;;;;;;;;;;27.18;22.09;97646.38;5079814;28;19916;-81
2024/03/01 03:23:10;;;;;;;;;;;;;;;27.17;22.32;97644.81;5089645;28;19924;-81
2024/03/01 03:25:36;;;;;;;;;;;;;;;27.18;22.26;97655.63;5090246;28;19928;-81
2024/03/01 03:28:03;;;;;;;;;;;;;;;27.06;22.42;97648.06;5089365;28;19923;-81
2024/03/01 03:30:29;;;;;;;;;;;;;;;26.65;22.73;97656.97;5088950;28;20300;-81
2024/03/01 03:32:55;;;;;;;;;;;;;;;26.70;22.58;97659.94;5075093;28;20376;-81
2024/03/01 03:35:21;;;;;;;;;;;;;;;26.55;22.73;97649.69;5086835;28;19935;-81
2024/03/01 03:37:47;;;;;;;;;;;;;;;26.47;23.03;97646.38;5090144;28;19920;-81
2024/03/01 03:40:16;;;;;;;;;;;;;;;26.74;22.54;97645.72;5091096;28;19927;-81
2024/03/01 03:42:42;;;;;;;;;;;;;;;26.98;22.06;97640.38;5088706;28;19970;-81
2024/03/01 03:45:08;;;;;;;;;;;;;;;26.66;22.17;97641.63;5083516;28;19921;-81
2024/03/01 03:47:36;;;;;;;;;;;;;;;26.33;22.35;97641.28;5092074;28;19955;-81
2024/03/01 03:50:06;;;;;;;;;;;;;;;26.09;22.63;97642.97;5087292;28;19920;-81
2024/03/01 03:52:33;;;;;;;;;;;;;;;25.86;23.02;97647.00;5090065;28;20261;-82
2024/03/01 03:54:59;;;;;;;;;;;;;;;26.10;22.72;97650.19;5090546;28;20357;-81
2024/03/01 03:57:25;;;;;;;;;;;;;;;26.63;22.09;97656.63;5091665;28;19924;-81
2024/03/01 03:59:52;;;;;;;;;;;;;;;27.06;21.24;97662.16;5073869;28;19965;-81
2024/03/01 04:02:18;;;;;;;;;;;;;;;27.09;21.53;97663.28;5089489;28;19927;-81
2024/03/01 04:04:44;;;;;;;;;;;;;;;27.14;21.29;97669.06;5088304;28;19921;-81
2024/03/01 04:07:10;;;;;;;;;;;;;;;27.42;21.12;97672.00;5087991;28;19921;-81
2024/03/01 04:09:36;;;;;;;;;;;;;;;27.21;21.25;97663.13;5090860;28;19924;-81
2024/03/01 04:12:05;;;;;;;;;;;;;;;26.51;21.38;97660.31;5094423;28;20399;-81
2024/03/01 04:14:32;;;;;;;;;;;;;;;26.35;21.92;97654.91;5094487;28;19924;-81
2024/03/01 04:16:58;;;;;;;;;;;;;;;26.15;21.76;97652.44;5092832;28;19996;-81
2024/03/01 04:19:24;;;;;;;;;;;;;;;25.82;22.07;97663.25;5090025;28;19924;-81
2024/03/01 04:21:52;;;;;;;;;;;;;;;26.04;22.28;97663.25;5093563;28;19982;-81
2024/03/01 04:24:18;;;;;;;;;;;;;;;26.59;21.41;97661.59;5086271;28;19924;-81
2024/03/01 04:26:44;;;;;;;;;;;;;;;26.66;21.29;97652.88;5094157;28;19955;-81
2024/03/01 04:29:10;;;;;;;;;;;;;;;25.81;22.14;97658.06;5092747;28;19959;-81
2024/03/01 04:31:40;;;;;;;;;;;;;;;25.54;22.70;97664.22;5092845;28;19960;-81
2024/03/01 04:34:06;;;;;;;;;;;;;;;25.72;22.54;97663.63;5087817;28;19946;-81
2024/03/01 04:36:32;;;;;;;;;;;;;;;26.00;22.50;97662.59;5069833;28;20367;-81
2024/03/01 04:38:58;;;;;;;;;;;;;;;26.52;21.92;97668.31;5092882;28;20023;-81
2024/03/01 04:41:24;;;;;;;;;;;;;;;27.02;21.35;97663.56;5089131;28;19920;-81
2024/03/01 04:43:50;;;;;;;;;;;;;;;26.31;21.93;97652.22;5089754;28;19976;-81
2024/03/01 04:46:16;;;;;;;;;;;;;;;25.14;23.01;97652.69;5090639;28;19923;-81
2024/03/01 04:48:42;;;;;;;;;;;;;;;24.20;24.26;97648.78;5094648;28;19916;-81
2024/03/01 04:51:09;;;;;;;;;;;;;;;24.23;24.50;97639.50;5094747;28;19927;-81
2024/03/01 04:53:35;;;;;;;;;;;;;;;22.33;26.73;97628.34;5095655;28;19916;-81
2024/03/01 04:56:01;;;;;;;;;;;;;;;23.26;25.83;97620.13;5086946;28;19925;-81
2024/03/01 04:58:27;;;;;;;;;;;;;;;23.84;25.12;97615.34;5092675;28;20329;-81
2024/03/01 05:00:53;;;;;;;;;;;;;;;24.31;24.29;97617.63;5088651;28;19952;-81
2024/03/01 05:03:19;;;;;;;;;;;;;;;24.87;23.79;97623.53;5091418;28;19920;-81
2024/03/01 05:05:45;;;;;;;;;;;;;;;25.64;22.95;97629.34;5093040;28;19959;-81
2024/03/01 05:08:11;;;;;;;;;;;;;;;26.23;22.27;97630.44;5090272;28;19927;-82
2024/03/01 05:10:38;;;;;;;;;;;;;;;26.47;21.82;97634.31;5095164;28;20006;-81
2024/03/01 05:13:05;;;;;;;;;;;;;;;24.24;24.51;97629.84;5089127;28;20295;-81
2024/03/01 05:15:31;;;;;;;;;;;;;;;24.54;24.39;97639.75;5092825;28;20394;-81
2024/03/01 05:17:57;;;;;;;;;;;;;;;24.50;23.51;97642.69;5093217;28;19927;-81
2024/03/01 05:20:23;;;;;;;;;;;;;;;24.70;23.46;97648.88;5093985;28;19920;-81
2024/03/01 05:22:49;;;;;;;;;;;;;;;25.35;23.08;97656.81;5091363;28;19928;-82
2024/03/01 05:25:15;;;;;;;;;;;;;;;25.96;22.40;97653.50;5089564;28;19931;-82
2024/03/01 05:27:45;;;;;;;;;;;;;;;26.48;22.16;97649.97;5088184;28;19923;-81
2024/03/01 05:30:12;;;;;;;;;;;;;;;26.34;22.00;97642.88;5085329;28;19927;-82
2024/03/01 05:32:42;;;;;;;;;;;;;;;24.37;24.34;97649.50;5089431;28;19921;-81
2024/03/01 05:35:12;;;;;;;;;;;;;;;24.27;24.50;97656.22;5091865;28;19927;-82
2024/03/01 05:37:38;;;;;;;;;;;;;;;25.17;23.73;97654.63;5090648;28;19973;-83
2024/03/01 05:40:05;;;;;;;;;;;;;;;25.81;22.78;97660.88;5090923;28;19920;-81
2024/03/01 05:42:32;;;;;;;;;;;;;;;26.35;22.51;97672.56;5093948;28;19928;-81
2024/03/01 05:44:58;;;;;;;;;;;;;;;26.60;21.67;97663.97;5088483;28;19927;-82
2024/03/01 05:47:24;;;;;;;;;;;;;;;26.02;22.09;97666.50;5088068;28;19966;-82
2024/03/01 05:49:50;;;;;;;;;;;;;;;25.86;22.42;97675.13;5092138;28;19924;-81
2024/03/01 05:52:16;;;;;;;;;;;;;;;26.26;21.88;97686.59;5093994;28;19931;-81
2024/03/01 05:54:42;;;;;;;;;;;;;;;26.60;21.45;97685.72;5092903;28;19920;-81
2024/03/01 05:57:08;;;;;;;;;;;;;;;26.33;21.70;97677.88;5093174;28;19928;-81
2024/03/01 05:59:34;;;;;;;;;;;;;;;26.09;21.84;97683.13;5093580;28;19920;-81
2024/03/01 06:02:00;;;;;;;;;;;;;;;26.38;21.59;97691.34;5093614;28;19972;-81
2024/03/01 06:04:26;;;;;;;;;;;;;;;26.62;21.63;97684.00;5092083;28;20010;-81
2024/03/01 06:06:52;;;;;;;;;;;;;;;27.04;21.04;97675.16;5091821;28;19926;-81
2024/03/01 06:09:19;;;;;;;;;;;;;;;26.57;21.65;97676.16;5093101;28;20467;-81
2024/03/01 06:11:45;;;;;;;;;;;;;;;26.56;21.64;97665.34;5091624;28;19921;-81
2024/03/01 06:14:11;;;;;;;;;;;;;;;26.93;21.31;97655.06;5092635;28;19926;-81
2024/03/01 06:16:37;;;;;;;;;;;;;;;26.25;21.93;97647.66;5083647;28;20367;-81
2024/03/01 06:19:03;;;;;;;;;;;;;;;26.54;21.87;97648.91;5093708;28;19927;-81
2024/03/01 06:21:29;;;;;;;;;;;;;;;26.51;21.94;97640.63;5093576;28;19920;-81
2024/03/01 06:23:55;;;;;;;;;;;;;;;26.83;21.76;97645.00;5093369;28;19952;-81
2024/03/01 06:26:22;;;;;;;;;;;;;;;27.13;21.08;97652.63;5092975;28;19931;-81
2024/03/01 06:28:48;;;;;;;;;;;;;;;27.07;21.22;97660.13;5091648;28;20434;-81
2024/03/01 06:31:14;;;;;;;;;;;;;;;27.10;21.28;97665.63;5093493;28;19920;-81
2024/03/01 06:33:41;;;;;;;;;;;;;;;26.34;21.72;97654.13;5091886;28;19916;-81
2024/03/01 06:36:08;;;;;;;;;;;;;;;25.03;23.37;97666.31;5093258;28;20019;-81
2024/03/01 06:38:35;;;;;;;;;;;;;;;24.42;24.10;97651.75;5093665;28;20010;-81
2024/03/01 06:41:02;;;;;;;;;;;;;;;24.86;23.83;97653.63;5093735;28;19920;-81
2024/03/01 06:43:29;;;;;;;;;;;;;;;25.91;22.89;97660.50;5093562;28;19920;-81
2024/03/01 06:45:55;;;;;;;;;;;;;;;26.61;22.07;97648.63;5093645;28;19917;-81
2024/03/01 06:48:21;;;;;;;;;;;;;;;26.66;21.83;97648.03;5093216;28;19924;-81
2024/03/01 06:50:47;;;;;;;;;;;;;;;26.70;22.09;97636.63;5092674;28;19916;-81
2024/03/01 06:53:13;;;;;;;;;;;;;;;26.80;21.79;97627.00;5093484;28;19920;-81
2024/03/01 06:55:39;;;;;;;;;;;;;;;26.01;22.67;97631.19;5085111;28;20447;-82
2024/03/01 06:58:05;;;;;;;;;;;;;;;26.06;23.09;97639.06;5093284;28;20015;-81
2024/03/01 07:00:32;;;;;;;;;;;;;;;26.71;22.45;97638.19;5093190;28;19939;-81
2024/03/01 07:02:58;;;;;;;;;;;;;;;27.12;21.78;97651.09;5093344;28;19985;-81
2024/03/01 07:05:24;;;;;;;;;;;;;;;26.85;22.03;97650.97;5093236;28;20380;-81
2024/03/01 07:07:50;;;;;;;;;;;;;;;27.10;21.71;97648.72;5093566;28;19920;-81
2024/03/01 07:10:16;;;;;;;;;;;;;;;26.23;22.51;97647.31;5084750;28;19927;-81
2024/03/01 07:12:42;;;;;;;;;;;;;;;26.26;22.86;97652.00;5074657;28;19924;-81
2024/03/01 07:15:08;;;;;;;;;;;;;;;26.88;22.49;97650.03;5093506;28;20364;-81
2024/03/01 07:17:34;;;;;;;;;;;;;;;25.65;23.97;97639.31;5075515;28;19923;-81
2024/03/01 07:20:00;;;;;;;;;;;;;;;25.57;24.12;97640.03;5093380;28;19946;-81
2024/03/01 07:22:27;;;;;;;;;;;;;;;25.91;24.37;97652.06;5093254;28;19920;-81
2024/03/01 07:24:53;;;;;;;;;;;;;;;26.94;23.81;97656.63;5093166;28;19920;-81
2024/03/01 07:27:19;;;;;;;;;;;;;;;27.68;22.74;97653.56;5092757;28;19931;-81
2024/03/01 07:29:45;;;;;;;;;;;;;;;28.01;22.68;97660.16;5093225;28;19939;-81
2024/03/01 07:32:11;;;;;;;;;;;;;;;28.21;22.15;97654.06;5075127;28;20290;-81
2024/03/01 07:34:37;;;;;;;;;;;;;;;27.59;22.24;97653.53;5093102;28;19959;-81
2024/03/01 07:37:03;;;;;;;;;;;;;;;26.06;24.38;97636.25;5093165;28;19958;-81
2024/03/01 07:39:29;;;;;;;;;;;;;;;25.57;25.15;97634.41;5075524;28;19970;-81
2024/03/01 07:41:55;;;;;;;;;;;;;;;25.64;25.30;97628.56;5093224;28;19923;-81
2024/03/01 07:44:21;;;;;;;;;;;;;;;26.19;25.11;97646.66;5094359;28;19912;-81
2024/03/01 07:46:49;;;;;;;;;;;;;;;27.04;24.20;97646.97;5078972;28;19955;-81
2024/03/01 07:49:15;;;;;;;;;;;;;;;27.04;24.12;97635.69;5089562;28;19917;-81
2024/03/01 07:51:42;;;;;;;;;;;;;;;26.71;24.52;97639.00;5097020;28;19963;-81
2024/03/01 07:54:09;;;;;;;;;;;;;;;26.83;24.57;97642.19;5095471;28;19966;-81
2024/03/01 07:56:36;;;;;;;;;;;;;;;27.54;24.08;97649.31;5096516;28;19959;-81
2024/03/01 07:59:03;;;;;;;;;;;;;;;27.93;23.10;97648.41;5095937;28;20295;-81
2024/03/01 08:01:29;;;;;;;;;;;;;;;27.98;23.28;97639.28;5096152;28;20010;-81
2024/03/01 08:03:55;;;;;;;;;;;;;;;28.04;23.75;97643.09;5096221;28;19945;-81
2024/03/01 08:06:22;;;;;;;;;;;;;;;28.45;23.20;97638.03;5096333;28;19920;-81
2024/03/01 08:08:49;;;;;;;;;;;;;;;28.37;23.07;97625.47;5095869;28;19923;-81
2024/03/01 08:11:29;;;;;;;;;;;;;;;28.25;23.67;97629.25;5087956;28;20015;-82
2024/03/01 08:13:56;;;;;;;;;;;;;;;28.30;23.21;97637.88;5096102;28;20370;-81
2024/03/01 08:16:25;;;;;;;;;;;;;;;26.89;25.47;97629.06;5077814;28;20315;-81
2024/03/01 08:18:52;;;;;;;;;;;;;;;26.26;26.25;97627.47;5087681;28;20012;-81
2024/03/01 08:21:18;;;;;;;;;;;;;;;27.06;25.17;97622.72;5094622;28;19920;-81
2024/03/01 08:23:44;;;;;;;;;;;;;;;27.61;25.23;97608.75;5091515;28;19924;-81
2024/03/01 08:26:30;;;;;;;;;;;;;;;27.90;24.43;97611.88;5095898;28;19931;-82
2024/03/01 08:29:00;;;;;;;;;;;;;;;28.42;24.71;97616.38;5095801;28;20305;-82
2024/03/01 08:31:29;;;;;;;;;;;;;;;29.12;23.99;97617.84;5096187;28;19920;-82
2024/03/01 08:33:59;;;;;;;;;;;;;;;29.61;23.81;97620.22;5096379;28;19924;-81
2024/03/01 08:36:25;;;;;;;;;;;;;;;29.56;22.37;97612.38;5096180;28;19916;-81
2024/03/01 08:39:05;;;;;;;;;;;;;;;28.08;24.54;97612.66;5096143;28;20387;-82
2024/03/01 08:41:32;;;;;;;;;;;;;;;25.09;27.88;97613.94;5096203;28;20367;-81
2024/03/01 08:43:58;;;;;;;;;;;;;;;23.18;30.56;97627.13;5095571;28;19970;-81
2024/03/01 08:46:30;;;;;;;;;;;;;;;23.89;29.72;97619.63;5095885;28;19919;-81
2024/03/01 08:48:57;;;;;;;;;;;;;;;23.93;30.55;97623.13;5092838;28;20291;-81
2024/03/01 08:51:24;;;;;;;;;;;;;;;25.08;29.06;97620.81;5096179;28;19919;-82
2024/03/01 08:53:57;;;;;;;;;;;;;;;26.86;27.58;97622.34;5095783;28;19965;-82
2024/03/01 08:56:30;;;;;;;;;;;;;;;27.79;25.56;97606.72;5094364;28;20018;-82
2024/03/01 08:58:56;;;;;;;;;;;;;;;26.84;26.69;97609.97;5095818;28;19916;-82
2024/03/01 09:01:29;;;;;;;;;;;;;;;25.37;29.13;97610.16;5095524;28;19916;-82
2024/03/01 09:03:58;;;;;;;;;;;;;;;26.06;27.74;97605.28;5095729;28;19916;-82
2024/03/01 09:06:24;;;;;;;;;;;;;;;24.45;29.75;97611.59;5095586;28;19917;-82
2024/03/01 09:08:53;;;;;;;;;;;;;;;24.42;29.93;97609.66;5095648;28;19920;-81
2024/03/01 09:11:20;;;;;;;;;;;;;;;23.32;31.40;97612.75;5095410;28;19976;-82
2024/03/01 09:13:46;;;;;;;;;;;;;;;21.48;34.67;97611.69;5095712;28;20418;-81
2024/03/01 09:16:16;;;;;;;;;;;;;;;21.03;35.80;97614.03;5094792;28;20005;-82
2024/03/01 09:18:49;;;;;;;;;;;;;;;21.79;34.70;97622.25;5095239;28;19916;-82
2024/03/01 09:21:35;;;;;;;;;;;;;;;23.32;32.90;97625.97;5077502;28;19922;-82
2024/03/01 09:24:02;;;;;;;;;;;;;;;26.22;28.24;97640.91;5093702;28;19967;-82
2024/03/01 09:26:29;;;;;;;;;;;;;;;27.81;26.45;97640.88;5091907;28;19933;-81
2024/03/01 09:29:04;;;;;;;;;;;;;;;27.73;26.46;97631.16;5094865;28;19924;-81
2024/03/01 09:31:31;;;;;;;;;;;;;;;28.21;25.66;97615.31;5090203;28;19916;-81
2024/03/01 09:34:01;;;;;;;;;;;;;;;28.06;25.38;97620.81;5087391;28;19928;-82
2024/03/01 09:36:27;;;;;;;;;;;;;;;28.61;25.39;97632.03;5089734;28;20432;-82
2024/03/01 09:39:04;;;;;;;;;;;;;;;29.05;25.16;97635.94;5086157;28;19924;-81
2024/03/01 09:41:43;;;;;;;;;;;;;;;29.43;25.07;97629.59;5091503;28;19920;-82
2024/03/01 09:44:13;;;;;;;;;;;;;;;30.11;24.58;97627.69;5088541;28;19924;-82
2024/03/01 09:46:59;;;;;;;;;;;;;;;30.62;23.42;97616.78;5083893;28;19966;-82
2024/03/01 09:49:35;;;;;;;;;;;;;;;30.48;23.52;97628.16;5085723;28;20944;-82
2024/03/01 09:52:08;;;;;;;;;;;;;;;27.30;27.16;97622.94;5092900;28;19927;-82
2024/03/01 09:54:45;;;;;;;;;;;;;;;28.30;26.37;97618.13;5088532;28;20432;-82
2024/03/01 09:57:34;;;;;;;;;;;;;;;28.26;25.67;97611.06;5071404;28;20027;-82
2024/03/01 10:00:08;;;;;;;;;;;;;;;25.46;29.80;97614.34;5087234;28;19927;-82
2024/03/01 10:02:51;;;;;;;;;;;;;;;23.10;33.32;97613.75;5087981;28;19924;-82
2024/03/01 10:05:22;;;;;;;;;;;;;;;22.35;34.77;97609.09;5090816;28;19924;-82
2024/03/01 10:07:55;;;;;;;;;;;;;;;22.93;34.30;97607.34;5090467;28;20253;-82
2024/03/01 10:10:38;;;;;;;;;;;;;;;22.18;35.06;97596.28;5088507;28;19927;-82
2024/03/01 10:13:14;;;;;;;;;;;;;;;21.48;36.13;97595.72;5089357;28;19932;-82
2024/03/01 10:15:44;;;;;;;;;;;;;;;21.73;35.58;97598.81;5089208;28;19920;-82
2024/03/01 10:18:13;;;;;;;;;;;;;;;22.19;35.23;97606.28;5093454;28;19927;-82
2024/03/01 10:20:39;;;;;;;;;;;;;;;23.07;33.61;97597.81;5093073;28;19920;-82
2024/03/01 10:23:05;;;;;;;;;;;;;;;23.45;33.02;97596.03;5093411;28;19920;-81
2024/03/01 10:25:37;;;;;;;;;;;;;;;20.23;38.33;97612.13;5090811;28;19931;-81
2024/03/01 10:28:09;;;;;;;;;;;;;;;23.59;33.29;97611.66;5091516;28;19912;-82
2024/03/01 10:30:43;;;;;;;;;;;;;;;25.73;30.19;97609.72;5087196;28;19927;-82
2024/03/01 10:33:28;;;;;;;;;;;;;;;25.14;30.17;97604.94;5088445;28;20644;-82
2024/03/01 10:36:11;;;;;;;;;;;;;;;24.16;31.79;97594.03;5086955;28;19942;-82
2024/03/01 10:38:46;;;;;;;;;;;;;;;23.07;33.81;97592.22;5089060;28;19919;-82
2024/03/01 10:41:20;;;;;;;;;;;;;;;21.75;35.95;97596.38;5088271;28;20659;-82
2024/03/01 10:44:13;;;;;;;;;;;;;;;22.25;35.54;97595.34;5086308;28;20397;-82
2024/03/01 10:46:48;;;;;;;;;;;;;;;22.07;35.54;97597.75;5072796;28;19920;-82
2024/03/01 10:49:21;;;;;;;;;;;;;;;22.47;35.19;97596.44;5086780;28;19942;-82
2024/03/01 10:51:53;;;;;;;;;;;;;;;23.47;33.94;97593.56;5083214;28;19920;-82
2024/03/01 10:54:22;;;;;;;;;;;;;;;24.56;32.29;97584.75;5086178;28;19927;-82
2024/03/01 10:56:50;;;;;;;;;;;;;;;25.69;29.84;97580.16;5088390;28;19939;-82
2024/03/01 10:59:25;;;;;;;;;;;;;;;26.37;29.04;97576.41;5090236;28;19927;-83
2024/03/01 11:01:55;;;;;;;;;;;;;;;24.78;31.55;97573.66;5085397;28;20336;-83
2024/03/01 11:04:30;;;;;;;;;;;;;;;22.51;35.03;97583.16;5089126;28;19959;-82
2024/03/01 11:07:15;;;;;;;;;;;;;;;22.41;35.76;97573.78;5086995;28;19931;-81
2024/03/01 11:09:53;;;;;;;;;;;;;;;21.97;36.36;97571.59;5091913;28;19927;-81
2024/03/01 11:12:39;;;;;;;;;;;;;;;23.99;33.70;97556.84;5090774;28;19919;-81
2024/03/01 11:15:13;;;;;;;;;;;;;;;25.26;31.23;97550.75;5057757;28;20418;-81
2024/03/01 11:17:41;;;;;;;;;;;;;;;23.24;34.00;97558.13;5090677;28;19932;-82
2024/03/01 11:20:12;;;;;;;;;;;;;;;23.53;35.14;97555.38;5085818;28;19920;-82
2024/03/01 11:22:43;;;;;;;;;;;;;;;24.96;31.90;97540.16;5085127;28;19920;-83
2024/03/01 11:25:14;;;;;;;;;;;;;;;25.77;30.08;97542.09;5071032;28;19924;-82
2024/03/01 11:27:59;;;;;;;;;;;;;;;26.37;29.99;97548.25;5089740;28;20697;-82
2024/03/01 11:30:29;;;;;;;;;;;;;;;26.97;28.73;97555.06;5087736;28;19960;-83
2024/03/01 11:33:01;;;;;;;;;;;;;;;25.27;31.06;97546.69;5091717;28;19931;-83
2024/03/01 11:35:27;;;;;;;;;;;;;;;26.33;29.91;97541.97;5087951;28;19924;-82
2024/03/01 11:37:57;;;;;;;;;;;;;;;27.64;28.32;97549.34;5091116;28;19923;-84
2024/03/01 11:40:42;;;;;;;;;;;;;;;28.32;26.94;97533.72;5087389;28;19939;-82
2024/03/01 11:43:14;;;;;;;;;;;;;;;29.52;25.94;97522.06;5085094;28;19920;-82
2024/03/01 11:45:52;;;;;;;;;;;;;;;29.95;25.37;97524.19;5085313;28;19920;-82
2024/03/01 11:48:21;;;;;;;;;;;;;;;30.12;25.19;97518.03;5091065;28;20371;-82
2024/03/01 11:51:11;;;;;;;;;;;;;;;26.33;28.89;97525.09;5090572;28;19920;-82
2024/03/01 11:53:46;;;;;;;;;;;;;;;25.16;31.53;97529.41;5090358;28;20383;-82
2024/03/01 11:56:19;;;;;;;;;;;;;;;25.11;32.15;97532.78;5079473;28;19924;-82
2024/03/01 11:58:53;;;;;;;;;;;;;;;24.23;32.88;97532.09;5085266;28;19935;-82
2024/03/01 12:01:34;;;;;;;;;;;;;;;23.33;34.65;97516.28;5087892;28;19920;-82
2024/03/01 12:04:25;;;;;;;;;;;;;;;23.28;34.97;97524.44;5086346;28;19973;-82
2024/03/01 12:07:19;;;;;;;;;;;;;;;25.41;31.41;97525.72;5084325;28;19920;-82
2024/03/01 12:09:50;;;;;;;;;;;;;;;26.07;31.01;97527.28;5081898;28;19932;-82
2024/03/01 12:12:46;;;;;;;;;;;;;;;25.53;31.39;97516.50;5085922;28;19928;-82
2024/03/01 12:15:17;;;;;;;;;;;;;;;24.97;32.42;97510.03;5072601;28;19916;-82
2024/03/01 12:17:43;;;;;;;;;;;;;;;24.99;32.54;97505.53;5089039;28;19927;-82
2024/03/01 12:20:13;;;;;;;;;;;;;;;24.76;32.32;97503.13;5089833;28;20448;-82
2024/03/01 12:22:58;;;;;;;;;;;;;;;24.66;33.25;97504.25;5083839;28;19924;-82
2024/03/01 12:25:25;;;;;;;;;;;;;;;26.03;30.73;97509.75;5087065;28;20303;-82
2024/03/01 12:28:08;;;;;;;;;;;;;;;25.87;30.42;97498.72;5090356;28;19965;-82
2024/03/01 12:30:36;;;;;;;;;;;;;;;25.30;30.96;97500.81;5088843;28;19965;-82
2024/03/01 12:33:10;;;;;;;;;;;;;;;25.85;30.41;97501.22;5076474;28;20291;-82
2024/03/01 12:35:42;;;;;;;;;;;;;;;25.59;30.55;97503.41;5089309;28;19969;-82
2024/03/01 12:38:13;;;;;;;;;;;;;;;25.62;30.21;97502.50;5092310;28;20749;-82
2024/03/01 12:40:58;;;;;;;;;;;;;;;25.25;31.19;97503.44;5092688;28;19924;-82
2024/03/01 12:43:42;;;;;;;;;;;;;;;25.99;30.06;97507.09;5090114;28;20321;-82
2024/03/01 12:46:31;;;;;;;;;;;;;;;25.02;31.40;97496.19;5092636;28;19924;-82
2024/03/01 12:48:57;;;;;;;;;;;;;;;24.12;33.21;97486.78;5094012;28;20018;-83
2024/03/01 12:51:27;;;;;;;;;;;;;;;23.41;34.84;97497.25;5090335;28;20057;-82
2024/03/01 12:53:52;;;;;;;;;;;;;;;23.31;34.61;97501.16;5091415;28;19920;-83
2024/03/01 12:56:37;;;;;;;;;;;;;;;23.31;35.18;97498.34;5089019;28;19924;-82